createdAt,value
2018-12-16T00:00:43.408Z,0
2018-12-16T00:01:43.380Z,0
2018-12-16T00:02:43.134Z,0
2018-12-16T00:03:42.857Z,0
2018-12-16T00:04:51.840Z,0
2018-12-16T00:05:43.335Z,0
2018-12-16T00:06:43.562Z,0
2018-12-16T00:07:43.306Z,0
2018-12-16T00:08:43.055Z,0
2018-12-16T00:09:43.024Z,0
2018-12-16T00:10:43.493Z,0
2018-12-16T00:11:43.247Z,0
2018-12-16T00:12:43.227Z,0
2018-12-16T00:13:42.992Z,0
2018-12-16T00:14:42.499Z,0
2018-12-16T00:15:43.183Z,0
2018-12-16T00:16:43.260Z,0
2018-12-16T00:17:42.913Z,0
2018-12-16T00:18:43.149Z,0
2018-12-16T00:19:42.911Z,0
2018-12-16T00:20:43.128Z,0
2018-12-16T00:21:42.869Z,0
2018-12-16T00:22:43.393Z,0
2018-12-16T00:23:42.823Z,0
2018-12-16T00:24:43.066Z,0
2018-12-16T00:25:42.816Z,0
2018-12-16T00:26:43.046Z,0
2018-12-16T00:27:42.775Z,0
2018-12-16T00:28:42.781Z,0
2018-12-16T00:29:42.532Z,0
2018-12-16T00:30:43.006Z,0
2018-12-16T00:31:42.725Z,0
2018-12-16T00:32:42.739Z,0
2018-12-16T00:33:42.706Z,0
2018-12-16T00:34:42.475Z,0
2018-12-16T00:35:42.686Z,0
2018-12-16T00:36:42.917Z,0
2018-12-16T00:37:42.912Z,0
2018-12-16T00:38:42.888Z,0
2018-12-16T00:39:43.138Z,0
2018-12-16T00:40:43.124Z,0
2018-12-16T00:41:42.590Z,0
2018-12-16T00:42:43.093Z,0
2018-12-16T00:43:42.819Z,0
2018-12-16T00:44:42.558Z,0
2018-12-16T00:45:42.565Z,0
2018-12-16T00:46:42.520Z,0
2018-12-16T00:47:42.283Z,0
2018-12-16T00:48:43.006Z,0
2018-12-16T00:49:42.569Z,0
2018-12-16T00:50:42.514Z,0
2018-12-16T00:51:42.753Z,0
2018-12-16T00:52:45.827Z,0
2018-12-16T00:53:42.529Z,0
2018-12-16T00:54:42.440Z,0
2018-12-16T00:55:42.690Z,0
2018-12-16T00:56:42.663Z,0
2018-12-16T00:57:42.185Z,0
2018-12-16T00:58:42.430Z,0
2018-12-16T00:59:42.876Z,0
2018-12-16T01:00:42.386Z,0
2018-12-16T01:01:42.840Z,0
2018-12-16T01:02:42.579Z,0
2018-12-16T01:03:42.758Z,0
2018-12-16T01:04:45.910Z,0
2018-12-16T01:05:42.305Z,0
2018-12-16T01:06:42.526Z,0
2018-12-16T01:07:49.273Z,0
2018-12-16T01:08:42.523Z,0
2018-12-16T01:09:42.266Z,0
2018-12-16T01:10:42.490Z,0
2018-12-16T01:11:42.491Z,0
2018-12-16T01:12:42.478Z,0
2018-12-16T01:13:42.465Z,0
2018-12-16T01:14:41.928Z,0
2018-12-16T01:15:42.186Z,0
2018-12-16T01:16:42.428Z,0
2018-12-16T01:17:41.914Z,0
2018-12-16T01:18:42.615Z,0
2018-12-16T01:19:42.364Z,0
2018-12-16T01:20:42.099Z,0
2018-12-16T01:21:41.916Z,0
2018-12-16T01:22:48.287Z,0
2018-12-16T01:23:41.816Z,0
2018-12-16T01:24:42.300Z,0
2018-12-16T01:25:42.056Z,0
2018-12-16T01:26:41.778Z,0
2018-12-16T01:27:42.017Z,0
2018-12-16T01:28:41.998Z,0
2018-12-16T01:29:42.480Z,0
2018-12-16T01:30:42.012Z,0
2018-12-16T01:31:41.958Z,0
2018-12-16T01:32:42.456Z,0
2018-12-16T01:33:42.474Z,0
2018-12-16T01:34:42.153Z,0
2018-12-16T01:35:42.190Z,0
2018-12-16T01:36:42.413Z,0
2018-12-16T01:37:41.646Z,0
2018-12-16T01:38:41.884Z,0
2018-12-16T01:39:42.372Z,0
2018-12-16T01:40:41.859Z,0
2018-12-16T01:41:41.835Z,0
2018-12-16T01:42:42.313Z,0
2018-12-16T01:43:42.055Z,0
2018-12-16T01:44:41.801Z,0
2018-12-16T01:45:42.293Z,0
2018-12-16T01:46:41.774Z,0
2018-12-16T01:47:41.503Z,0
2018-12-16T01:48:41.764Z,0
2018-12-16T01:49:41.765Z,0
2018-12-16T01:50:41.724Z,0
2018-12-16T01:51:41.459Z,0
2018-12-16T01:52:42.194Z,0
2018-12-16T01:53:41.422Z,0
2018-12-16T01:54:41.417Z,0
2018-12-16T01:55:42.166Z,0
2018-12-16T01:56:41.894Z,0
2018-12-16T01:57:41.187Z,0
2018-12-16T01:58:41.632Z,0
2018-12-16T01:59:41.863Z,0
2018-12-16T02:00:41.856Z,0
2018-12-16T02:01:41.578Z,0
2018-12-16T02:02:41.603Z,0
2018-12-16T02:03:41.817Z,0
2018-12-16T02:04:41.801Z,0
2018-12-16T02:05:41.771Z,0
2018-12-16T02:06:41.773Z,0
2018-12-16T02:07:41.747Z,0
2018-12-16T02:08:41.494Z,0
2018-12-16T02:09:41.973Z,0
2018-12-16T02:10:41.965Z,0
2018-12-16T02:11:41.462Z,0
2018-12-16T02:12:41.218Z,0
2018-12-16T02:13:41.427Z,0
2018-12-16T02:14:41.430Z,0
2018-12-16T02:15:41.171Z,0
2018-12-16T02:16:41.136Z,0
2018-12-16T02:17:41.646Z,0
2018-12-16T02:18:41.900Z,0
2018-12-16T02:19:41.600Z,0
2018-12-16T02:20:41.832Z,0
2018-12-16T02:21:41.359Z,0
2018-12-16T02:22:41.065Z,0
2018-12-16T02:23:41.317Z,0
2018-12-16T02:24:41.055Z,0
2018-12-16T02:25:41.026Z,0
2018-12-16T02:26:41.282Z,0
2018-12-16T02:27:41.514Z,0
2018-12-16T02:28:41.504Z,0
2018-12-16T02:29:41.244Z,0
2018-12-16T02:30:41.573Z,0
2018-12-16T02:31:41.518Z,0
2018-12-16T02:32:41.432Z,0
2018-12-16T02:33:40.937Z,0
2018-12-16T02:34:41.418Z,0
2018-12-16T02:35:41.420Z,0
2018-12-16T02:36:40.897Z,0
2018-12-16T02:37:41.402Z,0
2018-12-16T02:38:41.618Z,0
2018-12-16T02:39:41.128Z,0
2018-12-16T02:40:41.362Z,0
2018-12-16T02:41:41.582Z,0
2018-12-16T02:42:41.068Z,0
2018-12-16T02:45:08.837Z,0
2018-12-16T02:45:41.282Z,0
2018-12-16T02:46:41.505Z,0
2018-12-16T02:47:41.239Z,0
2018-12-16T02:48:40.778Z,0
2018-12-16T02:49:41.251Z,0
2018-12-16T02:50:41.231Z,0
2018-12-16T02:51:40.710Z,0
2018-12-16T02:52:41.461Z,0
2018-12-16T02:53:41.187Z,0
2018-12-16T02:54:41.184Z,0
2018-12-16T02:55:41.392Z,0
2018-12-16T02:56:41.407Z,0
2018-12-16T02:57:41.389Z,0
2018-12-16T02:58:41.151Z,0
2018-12-16T02:59:41.098Z,0
2018-12-16T03:00:41.153Z,0
2018-12-16T03:01:41.119Z,0
2018-12-16T03:02:40.810Z,0
2018-12-16T03:03:40.860Z,0
2018-12-16T03:04:41.280Z,0
2018-12-16T03:05:41.034Z,0
2018-12-16T03:06:41.287Z,0
2018-12-16T03:07:41.257Z,0
2018-12-16T03:08:40.754Z,0
2018-12-16T03:09:40.980Z,0
2018-12-16T03:10:40.710Z,0
2018-12-16T03:11:41.212Z,0
2018-12-16T03:12:40.924Z,0
2018-12-16T03:13:41.209Z,0
2018-12-16T03:14:40.667Z,0
2018-12-16T03:15:40.928Z,0
2018-12-16T03:16:40.637Z,0
2018-12-16T03:17:40.879Z,0
2018-12-16T03:18:40.876Z,0
2018-12-16T03:21:01.976Z,0
2018-12-16T03:21:11.906Z,0
2018-12-16T03:22:11.611Z,0
2018-12-16T03:23:19.306Z,0
2018-12-16T03:24:11.604Z,0
2018-12-16T03:25:11.602Z,0
2018-12-16T03:26:11.599Z,0
2018-12-16T03:27:11.347Z,0
2018-12-16T03:28:11.806Z,0
2018-12-16T03:29:11.780Z,0
2018-12-16T03:30:11.812Z,0
2018-12-16T03:31:11.634Z,0
2018-12-16T03:32:11.550Z,0
2018-12-16T03:33:11.571Z,0
2018-12-16T03:34:11.289Z,0
2018-12-16T03:35:11.728Z,0
2018-12-16T03:36:27.485Z,0
2018-12-16T03:37:32.474Z,0
2018-12-16T03:38:11.475Z,0
2018-12-16T03:39:11.214Z,0
2018-12-16T03:40:17.182Z,0
2018-12-16T03:41:11.444Z,0
2018-12-16T03:42:11.123Z,0
2018-12-16T03:43:11.390Z,0
2018-12-16T03:44:10.856Z,0
2018-12-16T03:45:11.403Z,0
2018-12-16T03:46:11.261Z,0
2018-12-16T03:47:11.252Z,0
2018-12-16T03:48:11.688Z,0
2018-12-16T03:49:11.561Z,0
2018-12-16T03:50:11.063Z,0
2018-12-16T03:51:11.323Z,0
2018-12-16T03:52:10.982Z,0
2018-12-16T03:53:11.362Z,0
2018-12-16T03:54:10.972Z,0
2018-12-16T03:55:10.960Z,0
2018-12-16T03:56:10.773Z,0
2018-12-16T03:57:11.197Z,0
2018-12-16T03:58:11.041Z,0
2018-12-16T03:59:10.927Z,0
2018-12-16T04:00:11.171Z,0
2018-12-16T04:01:11.429Z,0
2018-12-16T04:02:11.383Z,0
2018-12-16T04:03:10.879Z,0
2018-12-16T04:04:11.907Z,0
2018-12-16T04:05:11.082Z,0
2018-12-16T04:06:10.938Z,0
2018-12-16T04:07:10.887Z,0
2018-12-16T04:08:10.319Z,0
2018-12-16T04:09:11.015Z,0
2018-12-16T04:10:10.778Z,0
2018-12-16T04:11:10.526Z,0
2018-12-16T04:12:11.260Z,0
2018-12-16T04:13:11.242Z,0
2018-12-16T04:14:10.719Z,0
2018-12-16T04:15:10.508Z,0
2018-12-16T04:16:11.066Z,0
2018-12-16T04:17:10.929Z,0
2018-12-16T04:18:11.186Z,0
2018-12-16T04:19:10.926Z,0
2018-12-16T04:20:10.895Z,0
2018-12-16T04:21:11.273Z,0
2018-12-16T04:22:11.134Z,0
2018-12-16T04:23:10.869Z,0
2018-12-16T04:24:10.917Z,0
2018-12-16T04:25:10.333Z,0
2018-12-16T04:26:11.250Z,0
2018-12-16T04:27:10.805Z,0
2018-12-16T04:28:11.614Z,0
2018-12-16T04:29:10.577Z,0
2018-12-16T04:30:11.028Z,0
2018-12-16T04:31:11.108Z,0
2018-12-16T04:32:11.014Z,0
2018-12-16T04:33:10.728Z,0
2018-12-16T04:34:10.527Z,0
2018-12-16T04:35:10.985Z,0
2018-12-16T04:36:11.089Z,0
2018-12-16T04:37:10.683Z,0
2018-12-16T04:38:10.699Z,0
2018-12-16T04:39:10.418Z,0
2018-12-16T04:40:10.419Z,0
2018-12-16T04:41:10.687Z,0
2018-12-16T04:42:10.858Z,0
2018-12-16T04:43:10.864Z,0
2018-12-16T04:44:12.066Z,0
2018-12-16T04:45:10.832Z,0
2018-12-16T04:46:10.939Z,0
2018-12-16T04:47:10.827Z,0
2018-12-16T04:48:10.073Z,0
2018-12-16T04:49:10.076Z,0
2018-12-16T04:50:10.783Z,0
2018-12-16T04:51:10.566Z,0
2018-12-16T04:52:10.503Z,0
2018-12-16T04:53:10.765Z,0
2018-12-16T04:54:10.735Z,0
2018-12-16T04:55:10.028Z,0
2018-12-16T04:56:10.505Z,0
2018-12-16T04:57:10.471Z,0
2018-12-16T04:58:10.163Z,0
2018-12-16T04:59:10.139Z,0
2018-12-16T05:00:10.126Z,0
2018-12-16T05:01:10.483Z,0
2018-12-16T05:02:10.118Z,0
2018-12-16T05:03:10.119Z,0
2018-12-16T05:04:09.592Z,0
2018-12-16T05:05:10.359Z,0
2018-12-16T05:06:27.540Z,0
2018-12-16T05:07:10.508Z,0
2018-12-16T05:08:09.805Z,0
2018-12-16T05:09:27.234Z,0
2018-12-16T05:10:10.419Z,0
2018-12-16T05:11:10.485Z,0
2018-12-16T05:12:09.782Z,0
2018-12-16T05:13:09.492Z,0
2018-12-16T05:14:09.715Z,0
2018-12-16T05:15:09.704Z,0
2018-12-16T05:16:10.259Z,0
2018-12-16T05:17:10.448Z,0
2018-12-16T05:18:10.411Z,0
2018-12-16T05:19:10.149Z,0
2018-12-16T05:20:10.125Z,0
2018-12-16T05:21:10.163Z,0
2018-12-16T05:22:11.017Z,0
2018-12-16T05:23:10.086Z,0
2018-12-16T05:24:10.073Z,0
2018-12-16T05:25:09.579Z,0
2018-12-16T05:26:09.812Z,0
2018-12-16T05:27:09.794Z,0
2018-12-16T05:28:09.793Z,0
2018-12-16T05:29:10.033Z,0
2018-12-16T05:30:10.015Z,0
2018-12-16T05:31:14.021Z,0
2018-12-16T05:32:09.761Z,0
2018-12-16T05:33:09.962Z,0
2018-12-16T05:34:11.419Z,0
2018-12-16T05:35:09.929Z,0
2018-12-16T05:36:09.460Z,0
2018-12-16T05:37:10.001Z,0
2018-12-16T05:38:09.864Z,0
2018-12-16T05:39:09.882Z,0
2018-12-16T05:40:09.853Z,0
2018-12-16T05:41:09.709Z,0
2018-12-16T05:42:09.389Z,0
2018-12-16T05:43:09.586Z,0
2018-12-16T05:44:09.804Z,0
2018-12-16T05:45:09.304Z,0
2018-12-16T05:46:09.762Z,0
2018-12-16T05:47:09.803Z,0
2018-12-16T05:48:09.762Z,0
2018-12-16T05:49:09.741Z,0
2018-12-16T05:50:09.721Z,0
2018-12-16T05:51:09.508Z,0
2018-12-16T05:52:09.504Z,0
2018-12-16T05:53:09.677Z,0
2018-12-16T05:54:09.175Z,0
2018-12-16T05:55:09.683Z,0
2018-12-16T05:56:09.874Z,0
2018-12-16T05:57:09.662Z,0
2018-12-16T05:58:09.784Z,0
2018-12-16T05:59:09.398Z,0
2018-12-16T06:00:09.859Z,0
2018-12-16T06:01:09.837Z,0
2018-12-16T06:02:09.683Z,0
2018-12-16T06:03:09.546Z,0
2018-12-16T06:04:09.517Z,0
2018-12-16T06:05:09.787Z,0
2018-12-16T06:06:09.101Z,0
2018-12-16T06:07:09.566Z,0
2018-12-16T06:08:10.159Z,0
2018-12-16T06:09:09.485Z,0
2018-12-16T06:10:09.218Z,0
2018-12-16T06:11:08.978Z,0
2018-12-16T06:12:09.678Z,0
2018-12-16T06:13:09.433Z,0
2018-12-16T06:14:09.136Z,0
2018-12-16T06:15:09.620Z,0
2018-12-16T06:16:09.211Z,0
2018-12-16T06:17:09.163Z,0
2018-12-16T06:18:09.580Z,0
2018-12-16T06:19:09.344Z,0
2018-12-16T06:20:08.855Z,0
2018-12-16T06:21:09.668Z,0
2018-12-16T06:22:08.993Z,0
2018-12-16T06:23:09.026Z,0
2018-12-16T06:24:09.269Z,0
2018-12-16T06:25:09.550Z,0
2018-12-16T06:26:09.252Z,0
2018-12-16T06:27:09.284Z,0
2018-12-16T06:28:08.721Z,0
2018-12-16T06:29:09.186Z,0
2018-12-16T06:30:09.223Z,0
2018-12-16T06:31:09.475Z,0
2018-12-16T06:32:09.385Z,0
2018-12-16T06:33:08.691Z,0
2018-12-16T06:34:09.413Z,0
2018-12-16T06:35:09.142Z,0
2018-12-16T06:36:08.889Z,0
2018-12-16T06:37:09.156Z,0
2018-12-16T06:38:08.828Z,0
2018-12-16T06:39:08.831Z,0
2018-12-16T06:40:09.076Z,0
2018-12-16T06:41:09.175Z,0
2018-12-16T06:42:09.100Z,0
2018-12-16T06:43:09.023Z,0
2018-12-16T06:44:09.272Z,0
2018-12-16T06:45:09.001Z,0
2018-12-16T06:46:09.054Z,0
2018-12-16T06:47:08.992Z,0
2018-12-16T06:48:08.970Z,0
2018-12-16T06:49:09.197Z,0
2018-12-16T06:50:08.962Z,0
2018-12-16T06:51:08.737Z,0
2018-12-16T06:52:10.823Z,0
2018-12-16T06:53:09.154Z,0
2018-12-16T06:54:12.181Z,0
2018-12-16T06:55:08.631Z,0
2018-12-16T06:56:13.676Z,0
2018-12-16T06:57:08.839Z,0
2018-12-16T06:58:09.078Z,0
2018-12-16T06:59:08.575Z,0
2018-12-16T07:00:09.101Z,0
2018-12-16T07:01:08.802Z,0
2018-12-16T07:02:08.291Z,0
2018-12-16T07:03:08.818Z,0
2018-12-16T07:04:09.033Z,0
2018-12-16T07:05:09.017Z,0
2018-12-16T07:06:09.082Z,0
2018-12-16T07:07:08.480Z,0
2018-12-16T07:08:09.063Z,0
2018-12-16T07:09:08.218Z,0
2018-12-16T07:10:08.692Z,0
2018-12-16T07:11:08.711Z,0
2018-12-16T07:12:08.718Z,0
2018-12-16T07:13:08.703Z,0
2018-12-16T07:14:08.414Z,0
2018-12-16T07:15:08.386Z,0
2018-12-16T07:16:09.047Z,0
2018-12-16T07:17:08.667Z,0
2018-12-16T07:18:08.396Z,0
2018-12-16T07:19:08.671Z,5
2018-12-16T07:20:08.612Z,5
2018-12-16T07:21:08.310Z,5
2018-12-16T07:22:08.321Z,5
2018-12-16T07:23:08.847Z,5
2018-12-16T07:24:13.597Z,5
2018-12-16T07:25:08.584Z,5
2018-12-16T07:26:08.564Z,5
2018-12-16T07:27:07.998Z,5
2018-12-16T07:28:08.312Z,5
2018-12-16T07:29:08.515Z,5
2018-12-16T07:30:08.477Z,10
2018-12-16T07:31:08.240Z,10
2018-12-16T07:32:07.937Z,15
2018-12-16T07:33:08.751Z,15
2018-12-16T07:34:08.170Z,15
2018-12-16T07:35:07.974Z,15
2018-12-16T07:36:08.436Z,15
2018-12-16T07:37:08.393Z,15
2018-12-16T07:38:08.005Z,15
2018-12-16T07:39:08.649Z,15
2018-12-16T07:40:08.113Z,15
2018-12-16T07:41:08.460Z,15
2018-12-16T07:42:08.334Z,15
2018-12-16T07:43:08.608Z,15
2018-12-16T07:44:08.406Z,15
2018-12-16T07:45:08.617Z,15
2018-12-16T07:46:08.061Z,20
2018-12-16T07:47:08.052Z,20
2018-12-16T07:48:08.086Z,20
2018-12-16T07:49:08.310Z,20
2018-12-16T07:50:07.969Z,20
2018-12-16T07:51:08.371Z,20
2018-12-16T07:52:08.251Z,20
2018-12-16T07:53:08.258Z,20
2018-12-16T07:54:07.996Z,20
2018-12-16T07:55:08.141Z,20
2018-12-16T07:56:08.491Z,20
2018-12-16T07:57:08.242Z,20
2018-12-16T07:58:08.192Z,20
2018-12-16T07:59:08.429Z,20
2018-12-16T08:00:07.912Z,20
2018-12-16T08:01:07.848Z,20
2018-12-16T08:02:08.088Z,20
2018-12-16T08:03:08.109Z,25
2018-12-16T08:04:08.051Z,25
2018-12-16T08:05:07.782Z,25
2018-12-16T08:06:08.049Z,25
2018-12-16T08:07:07.512Z,25
2018-12-16T08:08:08.053Z,25
2018-12-16T08:09:07.732Z,25
2018-12-16T08:10:07.736Z,25
2018-12-16T08:11:07.944Z,25
2018-12-16T08:12:07.968Z,25
2018-12-16T08:13:07.684Z,25
2018-12-16T08:14:08.192Z,25
2018-12-16T08:15:07.654Z,25
2018-12-16T08:16:07.923Z,25
2018-12-16T08:17:07.886Z,25
2018-12-16T08:18:07.870Z,25
2018-12-16T08:19:13.769Z,25
2018-12-16T08:20:07.954Z,25
2018-12-16T08:21:07.576Z,25
2018-12-16T08:22:07.836Z,25
2018-12-16T08:23:07.771Z,25
2018-12-16T08:24:07.793Z,25
2018-12-16T08:25:07.536Z,25
2018-12-16T08:26:07.545Z,25
2018-12-16T08:27:07.760Z,25
2018-12-16T08:28:07.317Z,30
2018-12-16T08:29:08.710Z,30
2018-12-16T08:30:07.494Z,30
2018-12-16T08:31:07.750Z,30
2018-12-16T08:32:07.461Z,30
2018-12-16T08:33:07.943Z,30
2018-12-16T08:34:07.448Z,30
2018-12-16T08:35:07.692Z,30
2018-12-16T08:36:07.423Z,30
2018-12-16T08:37:07.690Z,30
2018-12-16T08:38:07.705Z,35
2018-12-16T08:39:07.640Z,35
2018-12-16T08:40:07.123Z,40
2018-12-16T08:41:07.919Z,45
2018-12-16T08:42:07.093Z,50
2018-12-16T08:43:06.823Z,55
2018-12-16T08:44:07.304Z,60
2018-12-16T08:45:09.251Z,55
2018-12-16T08:46:07.558Z,55
2018-12-16T08:47:07.547Z,60
2018-12-16T08:48:07.072Z,60
2018-12-16T08:49:07.273Z,65
2018-12-16T08:50:07.266Z,75
2018-12-16T08:51:07.767Z,85
2018-12-16T08:52:07.292Z,90
2018-12-16T08:53:07.604Z,95
2018-12-16T08:54:07.218Z,100
2018-12-16T08:55:07.692Z,105
2018-12-16T08:56:07.452Z,100
2018-12-16T08:57:07.222Z,95
2018-12-16T08:58:06.737Z,95
2018-12-16T08:59:07.415Z,100
2018-12-16T09:00:07.395Z,110
2018-12-16T09:01:09.082Z,115
2018-12-16T09:02:07.364Z,110
2018-12-16T09:03:07.155Z,100
2018-12-16T09:04:07.357Z,100
2018-12-16T09:05:07.075Z,100
2018-12-16T09:06:06.833Z,105
2018-12-16T09:07:07.328Z,95
2018-12-16T09:08:08.267Z,90
2018-12-16T09:09:07.316Z,90
2018-12-16T09:10:08.095Z,90
2018-12-16T09:11:07.540Z,95
2018-12-16T09:12:07.286Z,100
2018-12-16T09:13:07.006Z,110
2018-12-16T09:14:07.546Z,115
2018-12-16T09:15:06.966Z,115
2018-12-16T09:16:06.961Z,110
2018-12-16T09:17:07.209Z,105
2018-12-16T09:18:06.709Z,105
2018-12-16T09:19:06.941Z,110
2018-12-16T09:20:06.683Z,110
2018-12-16T09:21:07.398Z,105
2018-12-16T09:22:06.655Z,105
2018-12-16T09:23:07.178Z,105
2018-12-16T09:24:06.912Z,105
2018-12-16T09:25:07.140Z,105
2018-12-16T09:26:07.091Z,110
2018-12-16T09:27:07.174Z,115
2018-12-16T09:28:06.654Z,115
2018-12-16T09:29:07.331Z,115
2018-12-16T09:30:06.589Z,115
2018-12-16T09:31:07.351Z,110
2018-12-16T09:32:07.436Z,115
2018-12-16T09:33:07.046Z,110
2018-12-16T09:34:06.802Z,105
2018-12-16T09:35:06.779Z,100
2018-12-16T09:36:06.775Z,100
2018-12-16T09:37:07.000Z,100
2018-12-16T09:38:09.333Z,105
2018-12-16T09:39:06.796Z,105
2018-12-16T09:40:07.690Z,110
2018-12-16T09:41:06.725Z,115
2018-12-16T09:42:06.958Z,125
2018-12-16T09:43:06.432Z,135
2018-12-16T09:44:06.978Z,135
2018-12-16T09:45:06.912Z,135
2018-12-16T09:46:06.940Z,125
2018-12-16T09:47:06.902Z,120
2018-12-16T09:48:07.130Z,115
2018-12-16T09:49:06.642Z,115
2018-12-16T09:50:06.876Z,120
2018-12-16T09:51:06.866Z,120
2018-12-16T09:52:06.591Z,130
2018-12-16T09:53:06.854Z,140
2018-12-16T09:54:08.866Z,150
2018-12-16T09:55:06.675Z,160
2018-12-16T09:56:06.562Z,165
2018-12-16T09:57:07.042Z,165
2018-12-16T09:58:06.788Z,170
2018-12-16T09:59:06.798Z,170
2018-12-16T10:00:06.794Z,175
2018-12-16T10:01:06.764Z,170
2018-12-16T10:02:06.751Z,165
2018-12-16T10:03:07.385Z,160
2018-12-16T10:04:06.754Z,155
2018-12-16T10:05:06.225Z,155
2018-12-16T10:06:06.478Z,155
2018-12-16T10:07:06.703Z,160
2018-12-16T10:08:06.706Z,165
2018-12-16T10:09:06.554Z,165
2018-12-16T10:10:06.933Z,165
2018-12-16T10:11:06.435Z,165
2018-12-16T10:12:06.398Z,170
2018-12-16T10:13:06.403Z,180
2018-12-16T10:14:06.644Z,175
2018-12-16T10:15:06.412Z,170
2018-12-16T10:16:06.431Z,170
2018-12-16T10:17:06.873Z,170
2018-12-16T10:18:06.838Z,165
2018-12-16T10:19:06.621Z,160
2018-12-16T10:20:06.578Z,155
2018-12-16T10:21:06.326Z,150
2018-12-16T10:22:06.101Z,145
2018-12-16T10:23:06.055Z,145
2018-12-16T10:24:09.354Z,145
2018-12-16T10:25:06.062Z,145
2018-12-16T10:26:06.027Z,145
2018-12-16T10:27:06.030Z,150
2018-12-16T10:28:06.264Z,145
2018-12-16T10:29:06.753Z,145
2018-12-16T10:30:06.345Z,145
2018-12-16T10:31:06.049Z,145
2018-12-16T10:32:06.227Z,145
2018-12-16T10:33:05.748Z,145
2018-12-16T10:34:05.956Z,150
2018-12-16T10:35:06.206Z,150
2018-12-16T10:36:06.267Z,155
2018-12-16T10:37:05.925Z,155
2018-12-16T10:38:06.159Z,155
2018-12-16T10:39:06.564Z,165
2018-12-16T10:40:06.453Z,180
2018-12-16T10:41:06.647Z,185
2018-12-16T10:42:06.126Z,195
2018-12-16T10:43:07.620Z,215
2018-12-16T10:44:06.821Z,225
2018-12-16T10:45:06.148Z,220
2018-12-16T10:46:06.352Z,225
2018-12-16T10:47:06.604Z,230
2018-12-16T10:48:06.497Z,225
2018-12-16T10:49:12.031Z,225
2018-12-16T10:50:06.587Z,225
2018-12-16T10:51:06.326Z,230
2018-12-16T10:52:06.295Z,220
2018-12-16T10:53:06.049Z,215
2018-12-16T10:54:06.524Z,215
2018-12-16T10:55:08.774Z,215
2018-12-16T10:56:06.848Z,205
2018-12-16T10:57:07.517Z,205
2018-12-16T10:58:09.840Z,205
2018-12-16T10:59:09.264Z,215
2018-12-16T11:00:06.935Z,210
2018-12-16T11:01:07.034Z,180
2018-12-16T11:02:06.449Z,190
2018-12-16T11:03:05.968Z,185
2018-12-16T11:04:06.635Z,195
2018-12-16T11:05:07.836Z,200
2018-12-16T11:06:05.669Z,195
2018-12-16T11:07:06.231Z,175
2018-12-16T11:08:06.427Z,170
2018-12-16T11:09:06.156Z,170
2018-12-16T11:10:06.637Z,160
2018-12-16T11:11:06.128Z,175
2018-12-16T11:12:06.399Z,165
2018-12-16T11:13:05.606Z,165
2018-12-16T11:14:05.833Z,165
2018-12-16T11:15:06.150Z,160
2018-12-16T11:16:06.138Z,165
2018-12-16T11:17:06.350Z,160
2018-12-16T11:18:06.329Z,160
2018-12-16T11:19:05.557Z,160
2018-12-16T11:20:06.125Z,150
2018-12-16T11:21:06.100Z,150
2018-12-16T11:22:06.812Z,160
2018-12-16T11:23:06.070Z,175
2018-12-16T11:24:05.759Z,185
2018-12-16T11:25:13.073Z,170
2018-12-16T11:26:06.010Z,165
2018-12-16T11:27:05.772Z,160
2018-12-16T11:28:05.989Z,170
2018-12-16T11:29:05.996Z,185
2018-12-16T11:30:06.256Z,185
2018-12-16T11:31:05.229Z,185
2018-12-16T11:32:05.689Z,160
2018-12-16T11:33:05.421Z,175
2018-12-16T11:34:05.678Z,170
2018-12-16T11:35:06.160Z,170
2018-12-16T11:36:05.629Z,150
2018-12-16T11:37:05.959Z,150
2018-12-16T11:38:06.679Z,175
2018-12-16T11:39:05.854Z,170
2018-12-16T11:40:05.610Z,170
2018-12-16T11:41:05.703Z,170
2018-12-16T11:42:06.096Z,170
2018-12-16T11:43:05.828Z,170
2018-12-16T11:44:06.068Z,165
2018-12-16T11:45:05.065Z,165
2018-12-16T11:46:06.474Z,165
2018-12-16T11:47:06.039Z,170
2018-12-16T11:48:05.300Z,155
2018-12-16T11:49:05.539Z,150
2018-12-16T11:50:05.285Z,170
2018-12-16T11:51:06.014Z,145
2018-12-16T11:52:05.509Z,150
2018-12-16T11:53:05.482Z,150
2018-12-16T11:54:05.775Z,145
2018-12-16T11:55:12.492Z,145
2018-12-16T11:56:09.255Z,140
2018-12-16T11:57:05.955Z,140
2018-12-16T11:58:05.682Z,140
2018-12-16T11:59:05.685Z,135
2018-12-16T12:00:05.688Z,135
2018-12-16T12:01:05.669Z,135
2018-12-16T12:02:05.175Z,135
2018-12-16T12:03:05.651Z,135
2018-12-16T12:04:05.635Z,130
2018-12-16T12:05:05.861Z,130
2018-12-16T12:06:05.620Z,125
2018-12-16T12:07:05.353Z,120
2018-12-16T12:08:05.853Z,115
2018-12-16T12:09:05.829Z,110
2018-12-16T12:10:05.812Z,105
2018-12-16T12:11:05.581Z,100
2018-12-16T12:12:05.794Z,100
2018-12-16T12:13:05.803Z,100
2018-12-16T12:14:05.783Z,100
2018-12-16T12:15:05.300Z,100
2018-12-16T12:16:05.535Z,95
2018-12-16T12:17:06.505Z,95
2018-12-16T12:18:05.009Z,95
2018-12-16T12:19:05.495Z,90
2018-12-16T12:20:05.788Z,85
2018-12-16T12:21:05.503Z,85
2018-12-16T12:22:11.168Z,85
2018-12-16T12:23:05.731Z,85
2018-12-16T12:24:05.230Z,85
2018-12-16T12:25:05.192Z,80
2018-12-16T12:26:06.645Z,75
2018-12-16T12:27:05.177Z,75
2018-12-16T12:28:05.185Z,75
2018-12-16T12:29:05.181Z,75
2018-12-16T12:30:05.180Z,75
2018-12-16T12:31:05.390Z,75
2018-12-16T12:32:05.397Z,75
2018-12-16T12:33:05.666Z,80
2018-12-16T12:34:05.371Z,75
2018-12-16T12:35:05.120Z,80
2018-12-16T12:36:04.866Z,75
2018-12-16T12:37:05.092Z,75
2018-12-16T12:38:05.611Z,75
2018-12-16T12:39:05.324Z,75
2018-12-16T12:40:05.584Z,75
2018-12-16T12:41:05.552Z,75
2018-12-16T12:42:05.367Z,75
2018-12-16T12:43:05.291Z,80
2018-12-16T12:44:05.553Z,80
2018-12-16T12:45:05.034Z,80
2018-12-16T12:46:05.523Z,80
2018-12-16T12:47:05.530Z,80
2018-12-16T12:48:05.017Z,80
2018-12-16T12:49:05.019Z,85
2018-12-16T12:50:05.234Z,95
2018-12-16T12:51:04.990Z,100
2018-12-16T12:52:05.428Z,100
2018-12-16T12:53:04.916Z,105
2018-12-16T12:54:06.594Z,115
2018-12-16T12:55:05.184Z,130
2018-12-16T12:56:05.482Z,125
2018-12-16T12:57:08.903Z,115
2018-12-16T12:58:04.919Z,115
2018-12-16T12:59:05.223Z,130
2018-12-16T13:00:05.146Z,135
2018-12-16T13:01:05.388Z,125
2018-12-16T13:02:06.097Z,110
2018-12-16T13:03:04.915Z,105
2018-12-16T13:04:05.383Z,105
2018-12-16T13:05:05.362Z,100
2018-12-16T13:06:05.122Z,95
2018-12-16T13:07:05.074Z,95
2018-12-16T13:08:05.340Z,90
2018-12-16T13:09:05.328Z,90
2018-12-16T13:10:05.064Z,90
2018-12-16T13:11:05.311Z,85
2018-12-16T13:12:06.250Z,85
2018-12-16T13:13:05.065Z,80
2018-12-16T13:14:04.786Z,80
2018-12-16T13:15:05.644Z,85
2018-12-16T13:16:05.281Z,85
2018-12-16T13:17:05.035Z,85
2018-12-16T13:18:04.753Z,85
2018-12-16T13:19:04.993Z,80
2018-12-16T13:20:04.746Z,80
2018-12-16T13:21:05.253Z,80
2018-12-16T13:22:04.717Z,75
2018-12-16T13:23:04.989Z,75
2018-12-16T13:24:05.188Z,80
2018-12-16T13:25:04.937Z,80
2018-12-16T13:26:04.913Z,80
2018-12-16T13:27:04.697Z,75
2018-12-16T13:28:05.623Z,70
2018-12-16T13:29:04.934Z,70
2018-12-16T13:30:05.147Z,70
2018-12-16T13:31:04.618Z,65
2018-12-16T13:32:04.882Z,70
2018-12-16T13:33:52.605Z,70
2018-12-16T13:34:05.124Z,70
2018-12-16T13:35:04.882Z,75
2018-12-16T13:36:04.869Z,75
2018-12-16T13:37:04.879Z,75
2018-12-16T13:38:04.842Z,75
2018-12-16T13:39:38.373Z,75
2018-12-16T13:40:04.697Z,75
2018-12-16T13:41:04.803Z,70
2018-12-16T13:42:04.824Z,70
2018-12-16T13:43:04.553Z,70
2018-12-16T13:44:07.287Z,70
2018-12-16T13:45:04.767Z,65
2018-12-16T13:46:04.520Z,65
2018-12-16T13:47:06.548Z,65
2018-12-16T13:48:15.673Z,65
2018-12-16T13:49:04.989Z,60
2018-12-16T13:50:07.453Z,60
2018-12-16T13:51:04.736Z,60
2018-12-16T13:52:04.482Z,55
2018-12-16T13:53:07.861Z,55
2018-12-16T13:54:10.410Z,55
2018-12-16T13:55:04.454Z,50
2018-12-16T13:56:04.764Z,50
2018-12-16T13:57:10.984Z,55
2018-12-16T13:58:04.647Z,55
2018-12-16T13:59:04.663Z,50
2018-12-16T14:00:04.686Z,50
2018-12-16T14:01:04.883Z,50
2018-12-16T14:02:04.634Z,50
2018-12-16T14:03:04.127Z,50
2018-12-16T14:04:04.605Z,45
2018-12-16T14:05:04.389Z,45
2018-12-16T14:06:04.839Z,45
2018-12-16T14:07:04.322Z,45
2018-12-16T14:08:04.793Z,45
2018-12-16T14:09:04.614Z,45
2018-12-16T14:10:04.551Z,50
2018-12-16T14:11:04.791Z,45
2018-12-16T14:12:04.055Z,45
2018-12-16T14:13:04.271Z,45
2018-12-16T14:14:04.519Z,40
2018-12-16T14:15:04.306Z,40
2018-12-16T14:16:04.042Z,40
2018-12-16T14:17:04.001Z,40
2018-12-16T14:18:04.479Z,40
2018-12-16T14:19:04.463Z,45
2018-12-16T14:20:06.077Z,45
2018-12-16T14:21:04.702Z,45
2018-12-16T14:22:04.455Z,45
2018-12-16T14:23:04.463Z,50
2018-12-16T14:24:03.910Z,50
2018-12-16T14:25:04.391Z,55
2018-12-16T14:26:04.414Z,55